createdAt,value
2023-03-19T00:00:51.968Z,1.55
2023-03-19T00:03:19.116Z,1.20
2023-03-19T00:05:53.957Z,1.50
2023-03-19T00:08:22.722Z,1.30
2023-03-19T00:10:50.423Z,1.35
2023-03-19T00:13:17.747Z,0.90
2023-03-19T00:15:45.180Z,1.58
2023-03-19T00:18:12.500Z,1.42
2023-03-19T00:20:40.020Z,1.50
2023-03-19T00:23:07.480Z,1.70
2023-03-19T00:25:34.817Z,2.67
2023-03-19T00:28:02.245Z,2.35
2023-03-19T00:30:29.668Z,1.73
2023-03-19T00:32:57.121Z,1.73
2023-03-19T00:35:24.354Z,2.15
2023-03-19T00:37:51.815Z,1.70
2023-03-19T00:40:19.025Z,2.33
2023-03-19T00:42:46.303Z,2.05
2023-03-19T00:45:13.442Z,2.67
2023-03-19T00:47:40.835Z,2.55
2023-03-19T00:50:09.208Z,3.20
2023-03-19T00:52:36.440Z,3.85
2023-03-19T00:55:04.961Z,4.40
2023-03-19T00:57:32.074Z,3.22
2023-03-19T00:59:59.175Z,3.45
2023-03-19T01:02:27.089Z,3.60
2023-03-19T01:04:54.735Z,4.28
2023-03-19T01:07:22.159Z,3.88
2023-03-19T01:09:49.414Z,2.88
2023-03-19T01:12:17.345Z,4.00
2023-03-19T01:14:44.464Z,3.42
2023-03-19T01:17:11.751Z,2.70
2023-03-19T01:19:39.040Z,1.67
2023-03-19T01:22:06.305Z,2.08
2023-03-19T01:24:34.819Z,1.88
2023-03-19T01:27:02.042Z,1.60
2023-03-19T01:29:31.851Z,1.60
2023-03-19T01:32:04.974Z,1.13
2023-03-19T01:34:52.086Z,1.13
2023-03-19T01:37:19.480Z,0.98
2023-03-19T01:39:47.088Z,1.10
2023-03-19T01:42:15.751Z,1.10
2023-03-19T01:45:32.224Z,0.95
2023-03-19T01:48:32.198Z,0.75
2023-03-19T01:51:09.036Z,0.90
2023-03-19T01:54:06.272Z,0.80
2023-03-19T01:56:58.630Z,0.55
2023-03-19T01:59:47.933Z,0.60
2023-03-19T02:02:35.356Z,0.50
2023-03-19T02:05:25.585Z,0.35
2023-03-19T02:07:59.674Z,0.60
2023-03-19T02:10:28.837Z,0.68
2023-03-19T02:12:56.275Z,0.73
2023-03-19T02:15:23.633Z,0.70
2023-03-19T02:17:50.911Z,0.65
2023-03-19T02:20:23.284Z,0.70
2023-03-19T02:23:22.396Z,0.60
2023-03-19T02:26:12.461Z,0.60
2023-03-19T02:28:44.112Z,0.50
2023-03-19T02:31:14.342Z,0.40
2023-03-19T02:33:41.850Z,0.50
2023-03-19T02:36:17.477Z,0.32
2023-03-19T02:38:46.672Z,0.55
2023-03-19T02:41:13.790Z,0.47
2023-03-19T02:43:43.299Z,0.35
2023-03-19T02:46:13.214Z,0.40
2023-03-19T02:48:41.485Z,0.50
2023-03-19T02:51:08.897Z,0.50
2023-03-19T02:53:36.707Z,0.30
2023-03-19T02:56:05.456Z,0.40
2023-03-19T02:58:32.960Z,0.50
2023-03-19T03:01:01.567Z,0.30
2023-03-19T03:03:29.319Z,0.50
2023-03-19T03:05:56.567Z,0.50
2023-03-19T03:08:23.822Z,0.30
2023-03-19T03:10:51.040Z,0.47
2023-03-19T03:13:18.155Z,0.30
2023-03-19T03:15:45.264Z,0.40
2023-03-19T03:18:12.344Z,0.45
2023-03-19T03:20:39.414Z,0.40
2023-03-19T03:23:07.070Z,0.30
2023-03-19T03:25:36.036Z,0.40
2023-03-19T03:28:03.404Z,0.60
2023-03-19T03:30:30.583Z,0.50
2023-03-19T03:32:58.441Z,0.60
2023-03-19T03:35:25.644Z,0.57
2023-03-19T03:37:53.122Z,0.50
2023-03-19T03:40:20.604Z,0.50
2023-03-19T03:42:47.911Z,0.30
2023-03-19T03:45:15.455Z,0.40
2023-03-19T03:47:44.992Z,0.30
2023-03-19T03:50:12.836Z,0.32
2023-03-19T03:52:42.165Z,0.40
2023-03-19T03:55:10.001Z,0.40
2023-03-19T03:57:37.499Z,0.30
2023-03-19T04:00:05.958Z,0.40
2023-03-19T04:02:40.535Z,0.30
2023-03-19T04:05:09.341Z,0.30
2023-03-19T04:07:38.462Z,0.35
2023-03-19T04:10:06.435Z,0.40
2023-03-19T04:12:34.982Z,0.40
2023-03-19T04:15:02.579Z,0.30
2023-03-19T04:17:29.834Z,0.50
2023-03-19T04:19:57.346Z,0.30
2023-03-19T04:22:24.543Z,0.40
2023-03-19T04:24:52.015Z,0.35
2023-03-19T04:27:19.372Z,0.40
2023-03-19T04:29:46.937Z,0.30
2023-03-19T04:32:14.138Z,0.30
2023-03-19T04:34:41.957Z,0.20
2023-03-19T04:37:10.490Z,0.30
2023-03-19T04:39:45.243Z,0.20
2023-03-19T04:42:13.144Z,0.25
2023-03-19T04:44:49.640Z,0.40
2023-03-19T04:47:17.433Z,0.30
2023-03-19T04:49:51.504Z,0.30
2023-03-19T04:52:20.062Z,0.30
2023-03-19T04:54:48.829Z,0.30
2023-03-19T04:57:16.888Z,0.30
2023-03-19T04:59:46.578Z,0.30
2023-03-19T05:02:15.721Z,0.30
2023-03-19T05:04:45.019Z,0.32
2023-03-19T05:07:14.272Z,0.30
2023-03-19T05:09:44.220Z,0.40
2023-03-19T05:12:12.485Z,0.45
2023-03-19T05:14:45.217Z,0.43
2023-03-19T05:17:19.455Z,0.40
2023-03-19T05:19:57.221Z,0.32
2023-03-19T05:22:26.276Z,0.40
2023-03-19T05:24:54.248Z,0.65
2023-03-19T05:27:21.345Z,0.40
2023-03-19T05:30:02.905Z,0.70
2023-03-19T05:32:50.960Z,0.60
2023-03-19T05:35:30.906Z,0.70
2023-03-19T05:37:59.619Z,0.68
2023-03-19T05:40:28.067Z,1.10
2023-03-19T05:42:56.705Z,0.50
2023-03-19T05:45:26.408Z,0.52
2023-03-19T05:47:56.871Z,0.57
2023-03-19T05:50:25.355Z,0.70
2023-03-19T05:53:19.099Z,0.80
2023-03-19T05:56:01.436Z,0.80
2023-03-19T05:58:31.990Z,0.60
2023-03-19T06:01:00.046Z,0.60
2023-03-19T06:03:27.247Z,0.60
2023-03-19T06:05:55.225Z,0.63
2023-03-19T06:08:36.044Z,0.57
2023-03-19T06:11:23.479Z,0.40
2023-03-19T06:14:03.742Z,0.52
2023-03-19T06:16:35.042Z,0.50
2023-03-19T06:19:03.108Z,0.60
2023-03-19T06:21:30.906Z,0.47
2023-03-19T06:24:01.613Z,0.60
2023-03-19T06:26:33.722Z,0.55
2023-03-19T06:29:04.342Z,0.50
2023-03-19T06:31:31.557Z,0.57
2023-03-19T06:34:14.327Z,0.60
2023-03-19T06:36:43.157Z,0.45
2023-03-19T06:39:12.891Z,0.45
2023-03-19T06:41:40.140Z,0.50
2023-03-19T06:44:27.448Z,0.50
2023-03-19T06:46:54.675Z,0.80
2023-03-19T06:49:22.427Z,0.60
2023-03-19T06:51:49.627Z,0.50
2023-03-19T06:54:16.763Z,0.65
2023-03-19T06:56:44.901Z,0.88
2023-03-19T06:59:13.295Z,0.60
2023-03-19T07:01:43.633Z,0.55
2023-03-19T07:04:11.380Z,0.52
2023-03-19T07:06:38.679Z,0.60
2023-03-19T07:09:06.191Z,0.50
2023-03-19T07:11:35.830Z,0.52
2023-03-19T07:14:04.227Z,1.00
2023-03-19T07:16:31.506Z,0.52
2023-03-19T07:18:58.660Z,0.52
2023-03-19T07:21:25.979Z,0.75
2023-03-19T07:23:53.214Z,0.70
2023-03-19T07:26:20.480Z,1.05
2023-03-19T07:28:48.574Z,0.50
2023-03-19T07:31:17.159Z,0.60
2023-03-19T07:33:44.445Z,0.50
2023-03-19T07:36:11.654Z,0.57
2023-03-19T07:38:38.940Z,0.75
2023-03-19T07:41:06.357Z,0.80
2023-03-19T07:43:33.804Z,0.70
2023-03-19T07:46:01.170Z,0.82
2023-03-19T07:48:28.450Z,0.70
2023-03-19T07:50:55.628Z,0.98
2023-03-19T07:53:22.818Z,0.77
2023-03-19T07:55:49.987Z,0.77
2023-03-19T07:58:17.164Z,0.75
2023-03-19T08:00:45.289Z,0.65
2023-03-19T08:03:12.647Z,0.77
2023-03-19T08:05:39.966Z,0.40
2023-03-19T08:08:07.409Z,0.50
2023-03-19T08:10:36.650Z,0.70
2023-03-19T08:13:05.427Z,0.70
2023-03-19T08:15:33.125Z,1.00
2023-03-19T08:18:01.808Z,0.47
2023-03-19T08:20:28.874Z,0.60
2023-03-19T08:22:57.738Z,0.68
2023-03-19T08:25:25.957Z,0.80
2023-03-19T08:27:53.124Z,0.70
2023-03-19T08:30:20.421Z,0.40
2023-03-19T08:32:49.286Z,0.43
2023-03-19T08:35:16.824Z,0.50
2023-03-19T08:37:43.944Z,0.65
2023-03-19T08:40:11.676Z,0.60
2023-03-19T08:42:45.025Z,0.60
2023-03-19T08:45:14.556Z,0.40
2023-03-19T08:47:42.243Z,0.40
2023-03-19T08:50:10.830Z,0.55
2023-03-19T08:52:38.097Z,0.47
2023-03-19T08:55:06.193Z,0.70
2023-03-19T08:57:33.570Z,0.55
2023-03-19T09:00:01.143Z,0.70
2023-03-19T09:02:28.543Z,0.70
2023-03-19T09:04:55.849Z,0.68
2023-03-19T09:07:23.575Z,0.50
2023-03-19T09:09:50.688Z,0.80
2023-03-19T09:12:18.135Z,0.50
2023-03-19T09:14:45.336Z,0.75
2023-03-19T09:17:13.627Z,0.47
2023-03-19T09:19:41.785Z,0.60
2023-03-19T09:22:09.004Z,0.50
2023-03-19T09:24:38.807Z,0.60
2023-03-19T09:27:07.381Z,0.52
2023-03-19T09:29:35.001Z,0.60
2023-03-19T09:32:02.431Z,0.40
2023-03-19T09:34:29.669Z,0.50
2023-03-19T09:36:56.930Z,0.60
2023-03-19T09:39:24.099Z,0.65
2023-03-19T09:42:20.181Z,0.50
2023-03-19T09:44:47.463Z,0.77
2023-03-19T09:47:20.651Z,0.50
2023-03-19T09:49:49.333Z,0.63
2023-03-19T09:52:36.318Z,0.80
2023-03-19T09:55:33.699Z,0.70
2023-03-19T09:58:02.340Z,0.60
2023-03-19T10:00:34.155Z,0.60
2023-03-19T10:03:16.280Z,0.65
2023-03-19T10:06:18.063Z,0.68
2023-03-19T10:08:48.254Z,0.60
2023-03-19T10:11:15.532Z,0.70
2023-03-19T10:14:14.588Z,0.50
2023-03-19T10:16:47.299Z,0.70
2023-03-19T10:19:22.176Z,0.98
2023-03-19T10:21:53.714Z,0.50
2023-03-19T10:24:40.692Z,0.60
2023-03-19T10:27:23.198Z,0.70
2023-03-19T10:29:50.434Z,0.65
2023-03-19T10:32:24.894Z,0.75
2023-03-19T10:34:55.221Z,0.77
2023-03-19T10:37:26.668Z,0.80
2023-03-19T10:39:58.341Z,0.55
2023-03-19T10:43:06.317Z,0.57
2023-03-19T10:45:36.866Z,0.43
2023-03-19T10:48:05.951Z,0.68
2023-03-19T10:50:45.791Z,0.88
2023-03-19T10:53:15.958Z,0.70
2023-03-19T10:56:03.693Z,0.50
2023-03-19T10:58:32.787Z,0.60
2023-03-19T11:01:07.375Z,0.50
2023-03-19T11:03:41.019Z,0.60
2023-03-19T11:06:37.193Z,0.60
2023-03-19T11:09:19.821Z,0.55
2023-03-19T11:11:53.727Z,0.50
2023-03-19T11:14:38.500Z,0.70
2023-03-19T11:17:27.668Z,0.70
2023-03-19T11:19:59.611Z,0.60
2023-03-19T11:22:36.765Z,0.40
2023-03-19T11:25:15.956Z,0.60
2023-03-19T11:27:43.699Z,0.60
2023-03-19T11:30:20.162Z,0.80
2023-03-19T11:33:22.098Z,0.80
2023-03-19T11:36:12.045Z,0.52
2023-03-19T11:38:54.705Z,0.70
2023-03-19T11:41:49.517Z,0.73
2023-03-19T11:44:44.459Z,0.70
2023-03-19T11:47:36.747Z,0.65
2023-03-19T11:50:19.503Z,0.60
2023-03-19T11:53:14.290Z,0.63
2023-03-19T11:55:49.631Z,0.50
2023-03-19T11:58:25.925Z,1.17
2023-03-19T12:00:55.235Z,0.50
2023-03-19T12:04:01.714Z,0.50
2023-03-19T12:06:31.922Z,0.55
2023-03-19T12:09:19.255Z,0.40
2023-03-19T12:12:01.750Z,0.57
2023-03-19T12:14:37.823Z,0.60
2023-03-19T12:48:11.372Z,0.40
2023-03-19T12:50:42.312Z,0.80
2023-03-19T12:53:40.513Z,0.40
2023-03-19T12:56:14.500Z,0.70
2023-03-19T12:59:09.978Z,0.40
2023-03-19T13:01:47.416Z,0.80
2023-03-19T13:04:23.399Z,0.52
2023-03-19T13:06:59.018Z,0.93
2023-03-19T13:10:04.797Z,0.40
2023-03-19T13:12:36.320Z,0.50
2023-03-19T13:15:16.989Z,0.63
2023-03-19T13:18:06.912Z,0.50
2023-03-19T13:21:21.660Z,0.60
2023-03-19T13:23:57.412Z,0.50
2023-03-19T13:26:24.870Z,0.55
2023-03-19T13:29:00.558Z,0.50
2023-03-19T13:31:29.486Z,0.50
2023-03-19T13:34:17.637Z,0.90
2023-03-19T13:36:54.329Z,0.70
2023-03-19T13:39:28.566Z,0.50
2023-03-19T13:42:08.053Z,0.60
2023-03-19T13:45:03.682Z,0.30
2023-03-19T13:47:33.755Z,0.80
2023-03-19T13:50:16.160Z,0.55
2023-03-19T13:52:53.684Z,1.10
2023-03-19T13:55:44.677Z,0.52
2023-03-19T13:58:37.435Z,0.88
2023-03-19T14:01:25.823Z,0.82
2023-03-19T14:04:18.692Z,0.55
2023-03-19T14:06:49.516Z,0.50
2023-03-19T14:09:44.620Z,0.45
2023-03-19T14:12:40.777Z,0.50
2023-03-19T14:15:10.622Z,0.73
2023-03-19T14:18:00.540Z,0.80
2023-03-19T14:20:39.306Z,0.80
2023-03-19T14:23:13.643Z,0.68
2023-03-19T14:25:59.160Z,0.50
2023-03-19T14:28:41.606Z,0.45
2023-03-19T14:31:24.115Z,0.60
2023-03-19T14:34:13.017Z,0.70
2023-03-19T14:36:51.574Z,0.63
2023-03-19T14:39:25.386Z,1.15
2023-03-19T14:42:07.416Z,1.23
2023-03-19T14:45:14.221Z,0.77
2023-03-19T14:47:50.611Z,0.60
2023-03-19T14:50:41.569Z,0.60
2023-03-19T14:53:19.584Z,2.63
2023-03-19T14:55:52.454Z,1.00
2023-03-19T14:58:20.975Z,0.70
2023-03-19T15:00:54.157Z,0.65
2023-03-19T15:03:22.674Z,0.80
2023-03-19T15:05:50.811Z,1.25
2023-03-19T15:08:22.630Z,1.98
2023-03-19T15:11:37.153Z,0.90
2023-03-19T15:14:29.272Z,0.55
2023-03-19T15:17:02.475Z,0.60
2023-03-19T15:19:32.327Z,0.60
2023-03-19T15:22:31.489Z,0.70
2023-03-19T15:25:13.111Z,1.02
2023-03-19T15:27:41.721Z,1.23
2023-03-19T15:30:29.082Z,1.05
2023-03-19T15:33:10.339Z,0.95
2023-03-19T15:35:40.604Z,1.73
2023-03-19T15:38:10.886Z,1.35
2023-03-19T15:40:39.271Z,0.95
2023-03-19T15:43:09.712Z,1.00
2023-03-19T15:45:37.442Z,2.38
2023-03-19T15:48:21.636Z,0.98
2023-03-19T15:50:52.307Z,1.38
2023-03-19T15:53:23.541Z,1.20
2023-03-19T15:55:52.870Z,0.90
2023-03-19T15:58:30.464Z,0.93
2023-03-19T16:01:01.311Z,0.63
2023-03-19T16:03:41.728Z,0.73
2023-03-19T16:06:20.087Z,0.80
2023-03-19T16:08:54.199Z,0.90
2023-03-19T16:11:41.356Z,0.60
2023-03-19T16:14:19.556Z,0.80
2023-03-19T16:16:48.472Z,0.90
2023-03-19T16:19:34.357Z,0.77
2023-03-19T16:22:23.031Z,0.80
2023-03-19T16:24:51.955Z,1.00
2023-03-19T16:27:32.505Z,0.75
2023-03-19T16:30:00.751Z,0.68
2023-03-19T16:32:30.600Z,0.70
2023-03-19T16:35:14.346Z,0.90
2023-03-19T16:37:44.330Z,0.70
2023-03-19T16:40:17.189Z,1.30
2023-03-19T16:42:54.214Z,1.15
2023-03-19T16:45:39.546Z,0.85
2023-03-19T16:48:08.561Z,1.20
2023-03-19T16:50:39.088Z,1.77
2023-03-19T16:53:17.701Z,1.50
2023-03-19T16:55:44.974Z,1.52
2023-03-19T16:58:16.442Z,0.95
2023-03-19T17:00:44.749Z,1.10
2023-03-19T17:03:30.443Z,1.08
2023-03-19T17:06:04.946Z,1.27
2023-03-19T17:08:32.473Z,1.95
2023-03-19T17:10:59.514Z,1.35
2023-03-19T17:13:29.950Z,1.50
2023-03-19T17:16:03.546Z,1.67
2023-03-19T17:18:35.168Z,1.77
2023-03-19T17:21:11.639Z,1.50
2023-03-19T17:23:39.245Z,1.30
2023-03-19T17:26:17.496Z,1.10
2023-03-19T17:28:46.069Z,1.30
2023-03-19T17:31:27.547Z,1.70
2023-03-19T17:34:02.964Z,1.83
2023-03-19T17:36:31.032Z,1.50
2023-03-19T17:38:58.224Z,1.38
2023-03-19T17:41:25.536Z,1.67
2023-03-19T17:43:52.787Z,1.30
2023-03-19T17:46:24.096Z,1.42
2023-03-19T17:48:52.209Z,1.38
2023-03-19T17:51:19.974Z,2.00
2023-03-19T17:53:51.479Z,1.02
2023-03-19T17:56:22.067Z,1.60
2023-03-19T17:58:50.455Z,2.17
2023-03-19T18:01:27.732Z,1.27
2023-03-19T18:03:56.478Z,1.70
2023-03-19T18:06:26.093Z,1.48
2023-03-19T18:08:53.258Z,1.40
2023-03-19T18:11:20.561Z,1.67
2023-03-19T18:13:47.791Z,1.75
2023-03-19T18:16:30.735Z,2.00
2023-03-19T18:19:03.484Z,1.83
2023-03-19T18:21:31.274Z,2.17
2023-03-19T18:23:58.846Z,1.50
2023-03-19T18:26:26.478Z,2.85
2023-03-19T18:28:53.709Z,1.60
2023-03-19T18:31:25.595Z,1.60
2023-03-19T18:34:03.818Z,2.55
2023-03-19T18:36:32.833Z,4.20
2023-03-19T18:39:00.337Z,1.90
2023-03-19T18:41:29.188Z,2.13
2023-03-19T18:44:07.191Z,2.05
2023-03-19T18:46:36.494Z,2.10
2023-03-19T18:49:22.222Z,1.73
2023-03-19T18:52:02.161Z,1.55
2023-03-19T18:54:31.257Z,2.63
2023-03-19T18:57:02.486Z,2.80
2023-03-19T18:59:35.425Z,2.60
2023-03-19T19:02:30.687Z,5.05
2023-03-19T19:04:58.423Z,3.13
2023-03-19T19:07:25.545Z,2.80
2023-03-19T19:09:53.005Z,2.58
2023-03-19T19:12:20.739Z,2.88
2023-03-19T19:14:48.661Z,2.53
2023-03-19T19:17:18.310Z,3.50
2023-03-19T19:19:45.501Z,2.50
2023-03-19T19:22:19.636Z,2.25
2023-03-19T19:24:47.250Z,1.80
2023-03-19T19:27:22.076Z,1.25
2023-03-19T19:29:49.824Z,1.50
2023-03-19T19:32:27.043Z,1.95
2023-03-19T19:34:54.384Z,3.38
2023-03-19T19:37:23.418Z,2.08
2023-03-19T19:39:51.376Z,1.65
2023-03-19T19:42:21.418Z,2.05
2023-03-19T19:44:58.806Z,1.65
2023-03-19T19:47:27.017Z,2.65
2023-03-19T19:49:54.135Z,1.92
2023-03-19T19:52:21.439Z,1.30
2023-03-19T19:54:48.760Z,1.65
2023-03-19T19:57:25.095Z,1.40
2023-03-19T19:59:53.484Z,1.10
2023-03-19T20:02:26.701Z,1.00
2023-03-19T20:04:53.962Z,1.00
2023-03-19T20:07:21.371Z,0.82
2023-03-19T20:09:48.828Z,0.95
2023-03-19T20:12:31.254Z,1.50
2023-03-19T20:14:58.748Z,1.08
2023-03-19T20:17:27.359Z,1.35
2023-03-19T20:19:54.740Z,0.95
2023-03-19T20:22:21.950Z,1.08
2023-03-19T20:24:51.319Z,1.58
2023-03-19T20:27:26.914Z,1.17
2023-03-19T20:29:54.581Z,1.00
2023-03-19T20:32:30.609Z,0.80
2023-03-19T20:34:57.888Z,0.70
2023-03-19T20:37:25.054Z,1.17
2023-03-19T20:39:52.191Z,1.10
2023-03-19T20:42:20.269Z,1.55
2023-03-19T20:44:48.023Z,1.20
2023-03-19T20:47:21.762Z,1.40
2023-03-19T20:49:49.369Z,1.10
2023-03-19T20:52:17.062Z,1.08
2023-03-19T20:54:44.851Z,1.10
2023-03-19T20:57:18.245Z,0.90
2023-03-19T20:59:48.655Z,1.20
2023-03-19T21:02:24.676Z,1.05
2023-03-19T21:04:52.026Z,1.20
2023-03-19T21:07:33.892Z,1.00
2023-03-19T21:10:22.293Z,0.75
2023-03-19T21:12:50.054Z,1.15
2023-03-19T21:15:17.233Z,1.50
2023-03-19T21:17:44.473Z,1.48
2023-03-19T21:20:26.529Z,1.17
2023-03-19T21:23:18.678Z,1.30
2023-03-19T21:25:47.575Z,0.90
2023-03-19T21:28:30.616Z,0.90
2023-03-19T21:30:58.453Z,0.90
2023-03-19T21:33:28.812Z,0.80
2023-03-19T21:35:57.431Z,0.90
2023-03-19T21:38:24.763Z,0.70
2023-03-19T21:40:56.160Z,1.15
2023-03-19T21:43:28.334Z,1.13
2023-03-19T21:45:56.633Z,0.90
2023-03-19T21:48:30.590Z,0.77
2023-03-19T21:50:58.945Z,0.65
2023-03-19T21:53:29.692Z,0.80
2023-03-19T21:55:59.458Z,0.80
2023-03-19T21:58:32.359Z,0.70
2023-03-19T22:01:01.342Z,0.60
2023-03-19T22:03:28.875Z,0.50
2023-03-19T22:05:56.980Z,0.60
2023-03-19T22:08:25.288Z,0.80
2023-03-19T22:10:57.820Z,0.77
2023-03-19T22:13:29.259Z,0.45
2023-03-19T22:15:58.889Z,0.60
2023-03-19T22:18:26.208Z,0.80
2023-03-19T22:20:53.548Z,0.50
2023-03-19T22:23:21.275Z,0.68
2023-03-19T22:25:51.082Z,0.40
2023-03-19T22:28:23.266Z,0.60
2023-03-19T22:30:50.641Z,0.47
2023-03-19T22:33:21.616Z,0.50
2023-03-19T22:35:50.282Z,0.60
2023-03-19T22:38:19.452Z,0.50
2023-03-19T22:40:51.932Z,0.60
2023-03-19T22:43:35.782Z,0.60
2023-03-19T22:46:15.559Z,0.40
2023-03-19T22:48:52.551Z,0.50
2023-03-19T22:51:21.794Z,0.50
2023-03-19T22:53:49.468Z,0.40
2023-03-19T22:56:17.616Z,0.40
2023-03-19T22:58:46.591Z,0.60
2023-03-19T23:01:35.753Z,0.50
2023-03-19T23:04:14.725Z,0.60
2023-03-19T23:06:41.888Z,0.50
2023-03-19T23:09:24.262Z,0.60
2023-03-19T23:11:52.735Z,0.77
2023-03-19T23:14:36.016Z,0.70
2023-03-19T23:17:17.724Z,0.80
2023-03-19T23:19:45.030Z,0.90
2023-03-19T23:22:16.685Z,0.70
2023-03-19T23:24:44.929Z,0.60
2023-03-19T23:27:25.251Z,0.60
2023-03-19T23:29:53.727Z,0.70
2023-03-19T23:32:21.923Z,0.60
2023-03-19T23:35:00.265Z,0.60
2023-03-19T23:37:29.242Z,0.60
2023-03-19T23:39:57.935Z,0.60
2023-03-19T23:42:31.745Z,0.80
2023-03-19T23:45:02.083Z,0.70
2023-03-19T23:47:30.761Z,0.70
2023-03-19T23:49:58.080Z,0.60
2023-03-19T23:52:25.489Z,0.73
2023-03-19T23:54:52.636Z,0.70
2023-03-19T23:57:21.629Z,0.98
2023-03-19T23:59:51.240Z,0.60
